Station History

Weather Underground - logo

Station Historical Data
Daily Summary for November 4, 2017 Units:  Both    English   Metric
« Previous Day
Next Day »
Daily Weekly Monthly Yearly Custom
  High: Low: Average:
Temperature: 71.7 °F /  22.1 °C 53.0 °F /  11.7 °C 61.8 °F /  16.6 °C
Dew Point: 54.7 °F /  12.6 °C 48.0 °F /  8.9 °C 51 °F /  10.6 °C
Humidity: 87 % 48 % 69 %
Wind Speed: 3.5 mph /  5.6 km/h - 0.6 mph /  1 km/h
Wind Gust: 3.5 mph /  5.6 km/h - -
Wind:- - West
Pressure: 30.04 in /  1017.2 hPa 29.94 in /  1013.8 hPa -
Precipitation: 0.00 in /  0 mm    
Historical Graphs
 
 
Tabular Data for November 4, 2017
Time Temperature Dew Point Pressure Wind Wind Speed Wind Gust Humidity Rainfall Rate (Hourly)
00:02 57.8 °F /  14.3 °C 50.3 °F /  10.2 °C 30.01 in /  1016.1 hPa Calm     76 % 0.00 in /  0 mm
00:07 57.9 °F /  14.4 °C 49.7 °F /  9.8 °C 30.01 in /  1016.1 hPa West 1.2 mph /  1.9 km/h 1.2 mph /  1.9 km/h 74 % 0.00 in /  0 mm
00:12 57.9 °F /  14.4 °C 49.7 °F /  9.8 °C 30.01 in /  1016.1 hPa WNW 1.2 mph /  1.9 km/h   74 % 0.00 in /  0 mm
00:17 57.9 °F /  14.4 °C 49.3 °F /  9.6 °C 30.01 in /  1016.1 hPa Calm     73 % 0.00 in /  0 mm
00:22 57.9 °F /  14.4 °C 49.3 °F /  9.6 °C 30.01 in /  1016.1 hPa Calm     73 % 0.00 in /  0 mm
00:27 58.2 °F /  14.6 °C 48.8 °F /  9.3 °C 30.02 in /  1016.5 hPa Calm     71 % 0.00 in /  0 mm
00:32 58.4 °F /  14.7 °C 48.7 °F /  9.3 °C 30.02 in /  1016.5 hPa NNW 2.3 mph /  3.7 km/h 2.3 mph /  3.7 km/h 70 % 0.00 in /  0 mm
00:37 58.6 °F /  14.8 °C 48.8 °F /  9.3 °C 30.02 in /  1016.5 hPa WNW 1.2 mph /  1.9 km/h 1.2 mph /  1.9 km/h 70 % 0.00 in /  0 mm
00:42 58.8 °F /  14.9 °C 48.6 °F /  9.2 °C 30.02 in /  1016.5 hPa NNW 1.2 mph /  1.9 km/h 1.2 mph /  1.9 km/h 69 % 0.00 in /  0 mm
00:47 58.9 °F /  14.9 °C 48.7 °F /  9.3 °C 30.02 in /  1016.5 hPa NW 1.2 mph /  1.9 km/h 1.2 mph /  1.9 km/h 69 % 0.00 in /  0 mm
00:52 58.9 °F /  14.9 °C 48.4 °F /  9.1 °C 30.02 in /  1016.5 hPa Calm     68 % 0.00 in /  0 mm
00:57 58.8 °F /  14.9 °C 48.6 °F /  9.2 °C 30.02 in /  1016.5 hPa Calm     69 % 0.00 in /  0 mm
01:02 58.6 °F /  14.8 °C 48.5 °F /  9.2 °C 30.02 in /  1016.5 hPa Calm     69 % 0.00 in /  0 mm
01:07 58.6 °F /  14.8 °C 48.5 °F /  9.2 °C 30.02 in /  1016.5 hPa WNW 1.2 mph /  1.9 km/h   69 % 0.00 in /  0 mm
01:12 58.6 °F /  14.8 °C 48.5 °F /  9.2 °C 30.02 in /  1016.5 hPa Calm     69 % 0.00 in /  0 mm
01:17 58.5 °F /  14.7 °C 48.7 °F /  9.3 °C 30.02 in /  1016.5 hPa Calm     70 % 0.00 in /  0 mm
01:22 58.4 °F /  14.7 °C 48.3 °F /  9.1 °C 30.02 in /  1016.5 hPa Calm     69 % 0.00 in /  0 mm
01:27 58.3 °F /  14.6 °C 48.6 °F /  9.2 °C 30.02 in /  1016.5 hPa Calm     70 % 0.00 in /  0 mm
01:32 58.0 °F /  14.4 °C 49.0 °F /  9.4 °C 30.02 in /  1016.5 hPa Calm     72 % 0.00 in /  0 mm
01:37 57.6 °F /  14.2 °C 49.7 °F /  9.8 °C 30.02 in /  1016.5 hPa Calm     75 % 0.00 in /  0 mm
01:42 56.7 °F /  13.7 °C 49.2 °F /  9.6 °C 30.02 in /  1016.5 hPa Calm     76 % 0.00 in /  0 mm
01:48 56.2 °F /  13.4 °C 49.1 °F /  9.5 °C 30.02 in /  1016.5 hPa Calm     77 % 0.00 in /  0 mm
01:53 55.7 °F /  13.2 °C 48.9 °F /  9.4 °C 30.02 in /  1016.5 hPa Calm     78 % 0.00 in /  0 mm
01:58 55.3 °F /  12.9 °C 48.9 °F /  9.4 °C 30.02 in /  1016.5 hPa Calm     79 % 0.00 in /  0 mm
02:03 55.0 °F /  12.8 °C 48.9 °F /  9.4 °C 30.02 in /  1016.5 hPa Calm     80 % 0.00 in /  0 mm
02:08 54.7 °F /  12.6 °C 49.0 °F /  9.4 °C 30.02 in /  1016.5 hPa Calm     81 % 0.00 in /  0 mm
02:13 54.5 °F /  12.5 °C 49.1 °F /  9.5 °C 30.02 in /  1016.5 hPa Calm     82 % 0.00 in /  0 mm
02:18 54.4 °F /  12.4 °C 48.7 °F /  9.3 °C 30.02 in /  1016.5 hPa Calm     81 % 0.00 in /  0 mm
02:23 54.4 °F /  12.4 °C 49.0 °F /  9.4 °C 30.02 in /  1016.5 hPa Calm     82 % 0.00 in /  0 mm
02:28 54.5 °F /  12.5 °C 48.8 °F /  9.3 °C 30.02 in /  1016.5 hPa Calm     81 % 0.00 in /  0 mm
02:33 54.6 °F /  12.6 °C 48.9 °F /  9.4 °C 30.02 in /  1016.5 hPa Calm     81 % 0.00 in /  0 mm
02:38 54.7 °F /  12.6 °C 49.0 °F /  9.4 °C 30.01 in /  1016.1 hPa Calm     81 % 0.00 in /  0 mm
02:43 54.8 °F /  12.7 °C 49.1 °F /  9.5 °C 30.01 in /  1016.1 hPa Calm     81 % 0.00 in /  0 mm
02:48 55.0 °F /  12.8 °C 48.9 °F /  9.4 °C 30.01 in /  1016.1 hPa Calm     80 % 0.00 in /  0 mm
02:53 55.0 °F /  12.8 °C 49.3 °F /  9.6 °C 30.01 in /  1016.1 hPa Calm     81 % 0.00 in /  0 mm
02:58 55.1 °F /  12.8 °C 49.4 °F /  9.7 °C 30.01 in /  1016.1 hPa Calm     81 % 0.00 in /  0 mm
03:03 55.0 °F /  12.8 °C 49.3 °F /  9.6 °C 30.01 in /  1016.1 hPa Calm     81 % 0.00 in /  0 mm
03:08 55.1 °F /  12.8 °C 49.7 °F /  9.8 °C 30.01 in /  1016.1 hPa Calm     82 % 0.00 in /  0 mm
03:13 55.1 °F /  12.8 °C 50.0 °F /  10 °C 30.01 in /  1016.1 hPa Calm     83 % 0.00 in /  0 mm
03:18 55.0 °F /  12.8 °C 49.9 °F /  9.9 °C 30.01 in /  1016.1 hPa Calm     83 % 0.00 in /  0 mm
03:23 55.0 °F /  12.8 °C 48.9 °F /  9.4 °C 30.01 in /  1016.1 hPa Calm     80 % 0.00 in /  0 mm
03:28 55.1 °F /  12.8 °C 49.4 °F /  9.7 °C 30.00 in /  1015.8 hPa Calm     81 % 0.00 in /  0 mm
03:33 55.0 °F /  12.8 °C 49.6 °F /  9.8 °C 30.01 in /  1016.1 hPa Calm     82 % 0.00 in /  0 mm
03:38 54.6 °F /  12.6 °C 49.5 °F /  9.7 °C 30.01 in /  1016.1 hPa Calm     83 % 0.00 in /  0 mm
03:43 54.3 °F /  12.4 °C 49.2 °F /  9.6 °C 30.01 in /  1016.1 hPa Calm     83 % 0.00 in /  0 mm
03:53 54.0 °F /  12.2 °C 49.0 °F /  9.4 °C 30.01 in /  1016.1 hPa Calm     83 % 0.00 in /  0 mm
03:58 53.9 °F /  12.2 °C 49.2 °F /  9.6 °C 30.01 in /  1016.1 hPa Calm     84 % 0.00 in /  0 mm
04:03 53.9 °F /  12.2 °C 49.2 °F /  9.6 °C 30.00 in /  1015.8 hPa Calm     84 % 0.00 in /  0 mm
04:08 54.0 °F /  12.2 °C 49.3 °F /  9.6 °C 30.00 in /  1015.8 hPa Calm     84 % 0.00 in /  0 mm
04:14 54.3 °F /  12.4 °C 49.6 °F /  9.8 °C 30.01 in /  1016.1 hPa Calm     84 % 0.00 in /  0 mm
04:19 54.5 °F /  12.5 °C 49.8 °F /  9.9 °C 30.00 in /  1015.8 hPa Calm     84 % 0.00 in /  0 mm
04:24 54.5 °F /  12.5 °C 49.4 °F /  9.7 °C 30.00 in /  1015.8 hPa Calm     83 % 0.00 in /  0 mm
04:29 54.6 °F /  12.6 °C 49.5 °F /  9.7 °C 30.01 in /  1016.1 hPa Calm     83 % 0.00 in /  0 mm
04:34 54.6 °F /  12.6 °C 49.5 °F /  9.7 °C 30.01 in /  1016.1 hPa Calm     83 % 0.00 in /  0 mm
04:39 54.5 °F /  12.5 °C 49.4 °F /  9.7 °C 30.00 in /  1015.8 hPa Calm     83 % 0.00 in /  0 mm
04:44 54.5 °F /  12.5 °C 49.4 °F /  9.7 °C 30.00 in /  1015.8 hPa Calm     83 % 0.00 in /  0 mm
04:49 54.5 °F /  12.5 °C 49.8 °F /  9.9 °C 30.01 in /  1016.1 hPa Calm     84 % 0.00 in /  0 mm
04:54 54.4 °F /  12.4 °C 49.7 °F /  9.8 °C 30.01 in /  1016.1 hPa Calm     84 % 0.00 in /  0 mm
04:59 54.3 °F /  12.4 °C 49.6 °F /  9.8 °C 30.01 in /  1016.1 hPa Calm     84 % 0.00 in /  0 mm
05:04 54.1 °F /  12.3 °C 50.0 °F /  10 °C 30.01 in /  1016.1 hPa Calm     86 % 0.00 in /  0 mm
05:09 53.9 °F /  12.2 °C 49.8 °F /  9.9 °C 30.01 in /  1016.1 hPa Calm     86 % 0.00 in /  0 mm
05:14 53.8 °F /  12.1 °C 49.7 °F /  9.8 °C 30.01 in /  1016.1 hPa Calm     86 % 0.00 in /  0 mm
05:19 53.7 °F /  12.1 °C 49.6 °F /  9.8 °C 30.01 in /  1016.1 hPa Calm     86 % 0.00 in /  0 mm
05:24 53.7 °F /  12.1 °C 49.6 °F /  9.8 °C 30.01 in /  1016.1 hPa Calm     86 % 0.00 in /  0 mm
05:29 53.7 °F /  12.1 °C 49.9 °F /  9.9 °C 30.01 in /  1016.1 hPa Calm     87 % 0.00 in /  0 mm
05:34 53.7 °F /  12.1 °C 49.9 °F /  9.9 °C 30.01 in /  1016.1 hPa Calm     87 % 0.00 in /  0 mm
05:39 53.8 °F /  12.1 °C 50.0 °F /  10 °C 30.02 in /  1016.5 hPa Calm     87 % 0.00 in /  0 mm
05:44 53.9 °F /  12.2 °C 49.8 °F /  9.9 °C 30.02 in /  1016.5 hPa Calm     86 % 0.00 in /  0 mm
05:49 54.0 °F /  12.2 °C 49.9 °F /  9.9 °C 30.01 in /  1016.1 hPa Calm     86 % 0.00 in /  0 mm
05:54 54.1 °F /  12.3 °C 50.0 °F /  10 °C 30.02 in /  1016.5 hPa Calm     86 % 0.00 in /  0 mm
05:59 54.2 °F /  12.3 °C 49.8 °F /  9.9 °C 30.01 in /  1016.1 hPa Calm     85 % 0.00 in /  0 mm
06:04 54.5 °F /  12.5 °C 49.4 °F /  9.7 °C 30.01 in /  1016.1 hPa Calm     83 % 0.00 in /  0 mm
06:09 54.7 °F /  12.6 °C 49.3 °F /  9.6 °C 30.01 in /  1016.1 hPa Calm     82 % 0.00 in /  0 mm
06:14 54.8 °F /  12.7 °C 49.1 °F /  9.5 °C 30.01 in /  1016.1 hPa Calm     81 % 0.00 in /  0 mm
06:19 54.9 °F /  12.7 °C 49.2 °F /  9.6 °C 30.01 in /  1016.1 hPa Calm     81 % 0.00 in /  0 mm
06:24 55.1 °F /  12.8 °C 49.0 °F /  9.4 °C 30.02 in /  1016.5 hPa Calm     80 % 0.00 in /  0 mm
06:29 55.0 °F /  12.8 °C 48.9 °F /  9.4 °C 30.01 in /  1016.1 hPa Calm     80 % 0.00 in /  0 mm
06:34 55.0 °F /  12.8 °C 48.9 °F /  9.4 °C 30.01 in /  1016.1 hPa Calm     80 % 0.00 in /  0 mm
06:35 55.1 °F /  12.8 °C 48.7 °F /  9.3 °C 30.01 in /  1016.1 hPa Calm     79 % 0.00 in /  0 mm
06:40 55.1 °F /  12.8 °C 48.4 °F /  9.1 °C 30.01 in /  1016.1 hPa Calm     78 % 0.00 in /  0 mm
06:45 55.3 °F /  12.9 °C 48.6 °F /  9.2 °C 30.01 in /  1016.1 hPa NNW 1.2 mph /  1.9 km/h   78 % 0.00 in /  0 mm
06:50 55.4 °F /  13 °C 48.7 °F /  9.3 °C 30.01 in /  1016.1 hPa Calm     78 % 0.00 in /  0 mm
06:55 55.4 °F /  13 °C 48.7 °F /  9.3 °C 30.02 in /  1016.5 hPa Calm     78 % 0.00 in /  0 mm
07:00 55.3 °F /  12.9 °C 48.9 °F /  9.4 °C 30.02 in /  1016.5 hPa Calm     79 % 0.00 in /  0 mm
07:05 55.0 °F /  12.8 °C 48.9 °F /  9.4 °C 30.02 in /  1016.5 hPa Calm     80 % 0.00 in /  0 mm
07:10 54.8 °F /  12.7 °C 49.1 °F /  9.5 °C 30.02 in /  1016.5 hPa Calm     81 % 0.00 in /  0 mm
07:15 54.6 °F /  12.6 °C 49.2 °F /  9.6 °C 30.02 in /  1016.5 hPa Calm     82 % 0.00 in /  0 mm
07:20 54.4 °F /  12.4 °C 49.0 °F /  9.4 °C 30.02 in /  1016.5 hPa Calm     82 % 0.00 in /  0 mm
07:25 54.2 °F /  12.3 °C 48.8 °F /  9.3 °C 30.02 in /  1016.5 hPa Calm     82 % 0.00 in /  0 mm
07:30 54.0 °F /  12.2 °C 48.3 °F /  9.1 °C 30.02 in /  1016.5 hPa Calm     81 % 0.00 in /  0 mm
07:35 53.9 °F /  12.2 °C 48.2 °F /  9 °C 30.02 in /  1016.5 hPa Calm     81 % 0.00 in /  0 mm
07:40 53.7 °F /  12.1 °C 48.0 °F /  8.9 °C 30.03 in /  1016.8 hPa Calm     81 % 0.00 in /  0 mm
07:45 53.5 °F /  11.9 °C 48.1 °F /  8.9 °C 30.03 in /  1016.8 hPa Calm     82 % 0.00 in /  0 mm
07:50 53.2 °F /  11.8 °C 48.2 °F /  9 °C 30.03 in /  1016.8 hPa Calm     83 % 0.00 in /  0 mm
07:55 53.0 °F /  11.7 °C 48.3 °F /  9.1 °C 30.03 in /  1016.8 hPa Calm     84 % 0.00 in /  0 mm
08:00 53.0 °F /  11.7 °C 48.0 °F /  8.9 °C 30.03 in /  1016.8 hPa Calm     83 % 0.00 in /  0 mm
08:05 53.3 °F /  11.8 °C 48.6 °F /  9.2 °C 30.03 in /  1016.8 hPa Calm     84 % 0.00 in /  0 mm
08:10 53.6 °F /  12 °C 48.9 °F /  9.4 °C 30.04 in /  1017.2 hPa Calm     84 % 0.00 in /  0 mm
08:16 54.1 °F /  12.3 °C 48.7 °F /  9.3 °C 30.03 in /  1016.8 hPa Calm     82 % 0.00 in /  0 mm
08:21 54.9 °F /  12.7 °C 48.8 °F /  9.3 °C 30.03 in /  1016.8 hPa Calm     80 % 0.00 in /  0 mm
08:26 55.9 °F /  13.3 °C 49.1 °F /  9.5 °C 30.03 in /  1016.8 hPa Calm     78 % 0.00 in /  0 mm
08:31 56.9 °F /  13.8 °C 49.4 °F /  9.7 °C 30.03 in /  1016.8 hPa Calm     76 % 0.00 in /  0 mm
08:36 58.3 °F /  14.6 °C 49.7 °F /  9.8 °C 30.03 in /  1016.8 hPa Calm     73 % 0.00 in /  0 mm
08:41 59.2 °F /  15.1 °C 49.4 °F /  9.7 °C 30.04 in /  1017.2 hPa Calm     70 % 0.00 in /  0 mm
08:46 59.5 °F /  15.3 °C 50.1 °F /  10.1 °C 30.04 in /  1017.2 hPa Calm     71 % 0.00 in /  0 mm
08:51 59.6 °F /  15.3 °C 50.2 °F /  10.1 °C 30.04 in /  1017.2 hPa Calm     71 % 0.00 in /  0 mm
08:56 59.9 °F /  15.5 °C 50.5 °F /  10.3 °C 30.04 in /  1017.2 hPa Calm     71 % 0.00 in /  0 mm
09:01 60.1 °F /  15.6 °C 50.7 °F /  10.4 °C 30.04 in /  1017.2 hPa Calm     71 % 0.00 in /  0 mm
09:06 60.5 °F /  15.8 °C 50.7 °F /  10.4 °C 30.04 in /  1017.2 hPa Calm     70 % 0.00 in /  0 mm
09:11 60.5 °F /  15.8 °C 49.9 °F /  9.9 °C 30.04 in /  1017.2 hPa Calm   0.1 mph /  0.2 km/h 68 % 0.00 in /  0 mm
09:16 60.7 °F /  15.9 °C 50.9 °F /  10.5 °C 30.04 in /  1017.2 hPa Calm     70 % 0.00 in /  0 mm
09:21 61.1 °F /  16.2 °C 50.5 °F /  10.3 °C 30.04 in /  1017.2 hPa NNW 1.2 mph /  1.9 km/h   68 % 0.00 in /  0 mm
09:26 61.7 °F /  16.5 °C 50.6 °F /  10.3 °C 30.04 in /  1017.2 hPa Calm     67 % 0.00 in /  0 mm
09:31 62.8 °F /  17.1 °C 50.4 °F /  10.2 °C 30.04 in /  1017.2 hPa Calm     64 % 0.00 in /  0 mm
09:36 63.8 °F /  17.7 °C 51.0 °F /  10.6 °C 30.03 in /  1016.8 hPa ESE 1.2 mph /  1.9 km/h   63 % 0.00 in /  0 mm
09:41 64.4 °F /  18 °C 50.7 °F /  10.4 °C 30.03 in /  1016.8 hPa Calm     61 % 0.00 in /  0 mm
09:46 64.2 °F /  17.9 °C 50.9 °F /  10.5 °C 30.04 in /  1017.2 hPa Calm     62 % 0.00 in /  0 mm
09:51 64.5 °F /  18.1 °C 50.7 °F /  10.4 °C 30.03 in /  1016.8 hPa Calm     61 % 0.00 in /  0 mm
09:56 64.7 °F /  18.2 °C 50.9 °F /  10.5 °C 30.03 in /  1016.8 hPa Calm     61 % 0.00 in /  0 mm
10:01 65.4 °F /  18.6 °C 50.2 °F /  10.1 °C 30.03 in /  1016.8 hPa NE 1.2 mph /  1.9 km/h   58 % 0.00 in /  0 mm
10:06 65.7 °F /  18.7 °C 50.5 °F /  10.3 °C 30.04 in /  1017.2 hPa Calm     58 % 0.00 in /  0 mm
10:11 65.5 °F /  18.6 °C 49.9 °F /  9.9 °C 30.04 in /  1017.2 hPa East 1.2 mph /  1.9 km/h   57 % 0.00 in /  0 mm
10:16 65.5 °F /  18.6 °C 50.8 °F /  10.4 °C 30.03 in /  1016.8 hPa Calm     59 % 0.00 in /  0 mm
10:21 66.5 °F /  19.2 °C 51.3 °F /  10.7 °C 30.03 in /  1016.8 hPa SSW 1.2 mph /  1.9 km/h 1.2 mph /  1.9 km/h 58 % 0.00 in /  0 mm
10:26 66.8 °F /  19.3 °C 50.6 °F /  10.3 °C 30.04 in /  1017.2 hPa SSE 1.2 mph /  1.9 km/h 1.2 mph /  1.9 km/h 56 % 0.00 in /  0 mm
10:31 66.4 °F /  19.1 °C 49.7 °F /  9.8 °C 30.03 in /  1016.8 hPa ESE 1.2 mph /  1.9 km/h 1.2 mph /  1.9 km/h 55 % 0.00 in /  0 mm
10:36 66.5 °F /  19.2 °C 50.8 °F /  10.4 °C 30.03 in /  1016.8 hPa East 3.5 mph /  5.6 km/h 3.5 mph /  5.6 km/h 57 % 0.00 in /  0 mm
10:41 67.1 °F /  19.5 °C 51.4 °F /  10.8 °C 30.03 in /  1016.8 hPa SSW 1.2 mph /  1.9 km/h 1.2 mph /  1.9 km/h 57 % 0.00 in /  0 mm
10:46 67.3 °F /  19.6 °C 50.1 °F /  10.1 °C 30.04 in /  1017.2 hPa East 1.2 mph /  1.9 km/h 1.2 mph /  1.9 km/h 54 % 0.00 in /  0 mm
10:51 67.3 °F /  19.6 °C 52.0 °F /  11.1 °C 30.03 in /  1016.8 hPa SE 1.2 mph /  1.9 km/h 1.2 mph /  1.9 km/h 58 % 0.00 in /  0 mm
10:56 68.3 °F /  20.2 °C 51.5 °F /  10.8 °C 30.03 in /  1016.8 hPa SE 3.5 mph /  5.6 km/h 3.5 mph /  5.6 km/h 55 % 0.00 in /  0 mm
11:32 69.1 °F /  20.6 °C 51.8 °F /  11 °C 30.03 in /  1016.8 hPa NNW 1.2 mph /  1.9 km/h 1.2 mph /  1.9 km/h 54 % 0.00 in /  0 mm
11:37 69.5 °F /  20.8 °C 52.1 °F /  11.2 °C 30.03 in /  1016.8 hPa ENE 1.2 mph /  1.9 km/h 1.2 mph /  1.9 km/h 54 % 0.00 in /  0 mm
11:42 69.4 °F /  20.8 °C 51.0 °F /  10.6 °C 30.03 in /  1016.8 hPa Calm     52 % 0.00 in /  0 mm
11:47 69.3 °F /  20.7 °C 50.9 °F /  10.5 °C 30.03 in /  1016.8 hPa NW 1.2 mph /  1.9 km/h   52 % 0.00 in /  0 mm
11:52 69.4 °F /  20.8 °C 50.5 °F /  10.3 °C 30.02 in /  1016.5 hPa East 1.2 mph /  1.9 km/h 1.2 mph /  1.9 km/h 51 % 0.00 in /  0 mm
11:57 69.9 °F /  21.1 °C 51.5 °F /  10.8 °C 30.02 in /  1016.5 hPa Calm     52 % 0.00 in /  0 mm
12:02 70.3 °F /  21.3 °C 51.3 °F /  10.7 °C 30.02 in /  1016.5 hPa WSW 1.2 mph /  1.9 km/h   51 % 0.00 in /  0 mm
12:07 70.4 °F /  21.3 °C 50.9 °F /  10.5 °C 30.02 in /  1016.5 hPa SE 2.0 mph /  3.2 km/h 2.0 mph /  3.2 km/h 50 % 0.00 in /  0 mm
12:12 70.6 °F /  21.4 °C 51.1 °F /  10.6 °C 30.02 in /  1016.5 hPa SE 1.2 mph /  1.9 km/h 1.2 mph /  1.9 km/h 50 % 0.00 in /  0 mm
12:17 70.7 °F /  21.5 °C 51.1 °F /  10.6 °C 30.02 in /  1016.5 hPa NW 2.0 mph /  3.2 km/h 2.0 mph /  3.2 km/h 50 % 0.00 in /  0 mm
12:22 70.5 °F /  21.4 °C 50.4 °F /  10.2 °C 30.02 in /  1016.5 hPa NW 1.2 mph /  1.9 km/h 1.2 mph /  1.9 km/h 49 % 0.00 in /  0 mm
12:27 70.3 °F /  21.3 °C 51.3 °F /  10.7 °C 30.01 in /  1016.1 hPa WNW 3.5 mph /  5.6 km/h 3.5 mph /  5.6 km/h 51 % 0.00 in /  0 mm
12:32 70.1 °F /  21.2 °C 50.6 °F /  10.3 °C 30.01 in /  1016.1 hPa West 1.2 mph /  1.9 km/h 1.2 mph /  1.9 km/h 50 % 0.00 in /  0 mm
12:37 70.1 °F /  21.2 °C 51.7 °F /  10.9 °C 30.01 in /  1016.1 hPa NW 1.2 mph /  1.9 km/h 1.2 mph /  1.9 km/h 52 % 0.00 in /  0 mm
12:42 70.2 °F /  21.2 °C 51.7 °F /  10.9 °C 30.00 in /  1015.8 hPa WNW 1.2 mph /  1.9 km/h 1.2 mph /  1.9 km/h 52 % 0.00 in /  0 mm
12:47 70.3 °F /  21.3 °C 51.3 °F /  10.7 °C 30.00 in /  1015.8 hPa NW 2.3 mph /  3.7 km/h 2.3 mph /  3.7 km/h 51 % 0.00 in /  0 mm
12:52 70.0 °F /  21.1 °C 51.0 °F /  10.6 °C 30.00 in /  1015.8 hPa WNW 2.3 mph /  3.7 km/h 2.3 mph /  3.7 km/h 51 % 0.00 in /  0 mm
12:57 69.9 °F /  21.1 °C 51.5 °F /  10.8 °C 29.99 in /  1015.5 hPa ESE 1.2 mph /  1.9 km/h   52 % 0.00 in /  0 mm
13:02 70.6 °F /  21.4 °C 52.6 °F /  11.4 °C 29.99 in /  1015.5 hPa Calm     53 % 0.00 in /  0 mm
13:07 70.7 °F /  21.5 °C 51.1 °F /  10.6 °C 29.99 in /  1015.5 hPa NW 1.2 mph /  1.9 km/h   50 % 0.00 in /  0 mm
13:12 70.9 °F /  21.6 °C 51.3 °F /  10.7 °C 29.98 in /  1015.1 hPa West 2.3 mph /  3.7 km/h 2.3 mph /  3.7 km/h 50 % 0.00 in /  0 mm
13:17 71.4 °F /  21.9 °C 52.3 °F /  11.3 °C 29.98 in /  1015.1 hPa NW 2.3 mph /  3.7 km/h 2.3 mph /  3.7 km/h 51 % 0.00 in /  0 mm
13:22 71.6 °F /  22 °C 52.0 °F /  11.1 °C 29.98 in /  1015.1 hPa NW 2.3 mph /  3.7 km/h 2.3 mph /  3.7 km/h 50 % 0.00 in /  0 mm
13:27 71.5 °F /  21.9 °C 52.4 °F /  11.3 °C 29.98 in /  1015.1 hPa WNW 3.5 mph /  5.6 km/h 3.5 mph /  5.6 km/h 51 % 0.00 in /  0 mm
13:32 71.3 °F /  21.8 °C 51.7 °F /  10.9 °C 29.98 in /  1015.1 hPa NNW 1.2 mph /  1.9 km/h 1.2 mph /  1.9 km/h 50 % 0.00 in /  0 mm
13:37 71.7 °F /  22.1 °C 51.5 °F /  10.8 °C 29.98 in /  1015.1 hPa NW 3.5 mph /  5.6 km/h 3.5 mph /  5.6 km/h 49 % 0.00 in /  0 mm
13:43 71.3 °F /  21.8 °C 51.7 °F /  10.9 °C 29.97 in /  1014.8 hPa NW 2.3 mph /  3.7 km/h 2.3 mph /  3.7 km/h 50 % 0.00 in /  0 mm
13:48 71.1 °F /  21.7 °C 50.4 °F /  10.2 °C 29.97 in /  1014.8 hPa NW 2.3 mph /  3.7 km/h 2.3 mph /  3.7 km/h 48 % 0.00 in /  0 mm
13:53 71.0 °F /  21.7 °C 50.9 °F /  10.5 °C 29.96 in /  1014.4 hPa WNW 2.0 mph /  3.2 km/h 2.0 mph /  3.2 km/h 49 % 0.00 in /  0 mm
13:58 71.2 °F /  21.8 °C 50.5 °F /  10.3 °C 29.96 in /  1014.4 hPa NW 3.5 mph /  5.6 km/h 3.5 mph /  5.6 km/h 48 % 0.00 in /  0 mm
14:03 71.0 °F /  21.7 °C 50.9 °F /  10.5 °C 29.96 in /  1014.4 hPa WNW 1.2 mph /  1.9 km/h   49 % 0.00 in /  0 mm
14:08 71.0 °F /  21.7 °C 50.9 °F /  10.5 °C 29.96 in /  1014.4 hPa WNW 3.5 mph /  5.6 km/h 3.5 mph /  5.6 km/h 49 % 0.00 in /  0 mm
14:13 71.3 °F /  21.8 °C 51.1 °F /  10.6 °C 29.96 in /  1014.4 hPa SE 2.3 mph /  3.7 km/h 2.3 mph /  3.7 km/h 49 % 0.00 in /  0 mm
14:16 71.4 °F /  21.9 °C 50.7 °F /  10.4 °C 29.96 in /  1014.4 hPa WNW 3.5 mph /  5.6 km/h 3.5 mph /  5.6 km/h 48 % 0.00 in /  0 mm
14:21 71.4 °F /  21.9 °C 51.2 °F /  10.7 °C 29.95 in /  1014.1 hPa NW 2.3 mph /  3.7 km/h 2.3 mph /  3.7 km/h 49 % 0.00 in /  0 mm
14:26 71.1 °F /  21.7 °C 51.0 °F /  10.6 °C 29.95 in /  1014.1 hPa WSW 2.3 mph /  3.7 km/h 2.3 mph /  3.7 km/h 49 % 0.00 in /  0 mm
14:31 70.9 °F /  21.6 °C 51.3 °F /  10.7 °C 29.95 in /  1014.1 hPa NW 2.3 mph /  3.7 km/h 2.3 mph /  3.7 km/h 50 % 0.00 in /  0 mm
14:36 70.5 °F /  21.4 °C 51.0 °F /  10.6 °C 29.95 in /  1014.1 hPa NNW 2.0 mph /  3.2 km/h 2.0 mph /  3.2 km/h 50 % 0.00 in /  0 mm
14:41 70.3 °F /  21.3 °C 51.3 °F /  10.7 °C 29.95 in /  1014.1 hPa NNW 2.3 mph /  3.7 km/h 2.3 mph /  3.7 km/h 51 % 0.00 in /  0 mm
14:46 70.1 °F /  21.2 °C 51.1 °F /  10.6 °C 29.94 in /  1013.8 hPa NW 1.2 mph /  1.9 km/h 1.2 mph /  1.9 km/h 51 % 0.00 in /  0 mm
14:51 70.1 °F /  21.2 °C 51.1 °F /  10.6 °C 29.95 in /  1014.1 hPa West 2.3 mph /  3.7 km/h 2.3 mph /  3.7 km/h 51 % 0.00 in /  0 mm
14:56 70.1 °F /  21.2 °C 51.1 °F /  10.6 °C 29.95 in /  1014.1 hPa NW 2.3 mph /  3.7 km/h 2.3 mph /  3.7 km/h 51 % 0.00 in /  0 mm
15:01 70.1 °F /  21.2 °C 51.1 °F /  10.6 °C 29.95 in /  1014.1 hPa WNW 1.2 mph /  1.9 km/h   51 % 0.00 in /  0 mm
15:06 70.3 °F /  21.3 °C 51.3 °F /  10.7 °C 29.95 in /  1014.1 hPa NW 3.5 mph /  5.6 km/h 3.5 mph /  5.6 km/h 51 % 0.00 in /  0 mm
15:11 70.3 °F /  21.3 °C 51.3 °F /  10.7 °C 29.94 in /  1013.8 hPa NNE 2.0 mph /  3.2 km/h 2.0 mph /  3.2 km/h 51 % 0.00 in /  0 mm
15:16 70.5 °F /  21.4 °C 51.5 °F /  10.8 °C 29.94 in /  1013.8 hPa North 1.2 mph /  1.9 km/h 1.2 mph /  1.9 km/h 51 % 0.00 in /  0 mm
15:21 70.5 °F /  21.4 °C 52.0 °F /  11.1 °C 29.94 in /  1013.8 hPa WNW 1.2 mph /  1.9 km/h 1.2 mph /  1.9 km/h 52 % 0.00 in /  0 mm
15:26 70.3 °F /  21.3 °C 51.3 °F /  10.7 °C 29.94 in /  1013.8 hPa NW 1.2 mph /  1.9 km/h 1.2 mph /  1.9 km/h 51 % 0.00 in /  0 mm
15:31 70.1 °F /  21.2 °C 51.7 °F /  10.9 °C 29.94 in /  1013.8 hPa WNW 2.3 mph /  3.7 km/h   52 % 0.00 in /  0 mm
15:36 70.2 °F /  21.2 °C 51.7 °F /  10.9 °C 29.94 in /  1013.8 hPa SW 1.2 mph /  1.9 km/h   52 % 0.00 in /  0 mm
15:42 70.2 °F /  21.2 °C 50.7 °F /  10.4 °C 29.94 in /  1013.8 hPa WNW 2.3 mph /  3.7 km/h 2.3 mph /  3.7 km/h 50 % 0.00 in /  0 mm
15:47 70.0 °F /  21.1 °C 50.5 °F /  10.3 °C 29.94 in /  1013.8 hPa Calm     50 % 0.00 in /  0 mm
15:52 70.1 °F /  21.2 °C 51.1 °F /  10.6 °C 29.94 in /  1013.8 hPa Calm     51 % 0.00 in /  0 mm
15:57 70.0 °F /  21.1 °C 51.0 °F /  10.6 °C 29.94 in /  1013.8 hPa West 2.3 mph /  3.7 km/h 2.3 mph /  3.7 km/h 51 % 0.00 in /  0 mm
16:02 69.9 °F /  21.1 °C 50.9 °F /  10.5 °C 29.94 in /  1013.8 hPa Calm     51 % 0.00 in /  0 mm
16:07 69.9 °F /  21.1 °C 50.4 °F /  10.2 °C 29.94 in /  1013.8 hPa Calm     50 % 0.00 in /  0 mm
16:12 69.9 °F /  21.1 °C 49.9 °F /  9.9 °C 29.94 in /  1013.8 hPa Calm     49 % 0.00 in /  0 mm
16:17 69.8 °F /  21 °C 50.3 °F /  10.2 °C 29.94 in /  1013.8 hPa NW 1.2 mph /  1.9 km/h 1.2 mph /  1.9 km/h 50 % 0.00 in /  0 mm
16:22 69.6 °F /  20.9 °C 50.7 °F /  10.4 °C 29.95 in /  1014.1 hPa NNW 1.2 mph /  1.9 km/h   51 % 0.00 in /  0 mm
16:27 69.5 °F /  20.8 °C 50.6 °F /  10.3 °C 29.95 in /  1014.1 hPa Calm     51 % 0.00 in /  0 mm
16:32 69.4 °F /  20.8 °C 49.9 °F /  9.9 °C 29.95 in /  1014.1 hPa WSW 2.3 mph /  3.7 km/h 2.3 mph /  3.7 km/h 50 % 0.00 in /  0 mm
16:37 69.5 °F /  20.8 °C 50.6 °F /  10.3 °C 29.94 in /  1013.8 hPa Calm     51 % 0.00 in /  0 mm
16:42 69.4 °F /  20.8 °C 51.5 °F /  10.8 °C 29.94 in /  1013.8 hPa Calm     53 % 0.00 in /  0 mm
16:47 69.3 °F /  20.7 °C 50.9 °F /  10.5 °C 29.94 in /  1013.8 hPa Calm     52 % 0.00 in /  0 mm
16:52 69.2 °F /  20.7 °C 51.8 °F /  11 °C 29.95 in /  1014.1 hPa Calm     54 % 0.00 in /  0 mm
16:57 69.0 °F /  20.6 °C 51.7 °F /  10.9 °C 29.95 in /  1014.1 hPa WNW 2.3 mph /  3.7 km/h 2.3 mph /  3.7 km/h 54 % 0.00 in /  0 mm
17:02 68.9 °F /  20.5 °C 52.6 °F /  11.4 °C 29.95 in /  1014.1 hPa Calm     56 % 0.00 in /  0 mm
17:07 68.9 °F /  20.5 °C 53.0 °F /  11.7 °C 29.94 in /  1013.8 hPa WNW 1.2 mph /  1.9 km/h   57 % 0.00 in /  0 mm
17:12 68.8 °F /  20.4 °C 52.0 °F /  11.1 °C 29.94 in /  1013.8 hPa Calm     55 % 0.00 in /  0 mm
17:17 68.7 °F /  20.4 °C 51.9 °F /  11.1 °C 29.94 in /  1013.8 hPa WNW 1.0 mph /  1.6 km/h 1.0 mph /  1.6 km/h 55 % 0.00 in /  0 mm
17:22 68.5 °F /  20.3 °C 51.7 °F /  10.9 °C 29.95 in /  1014.1 hPa NNW 2.3 mph /  3.7 km/h 2.3 mph /  3.7 km/h 55 % 0.00 in /  0 mm
17:27 68.2 °F /  20.1 °C 51.9 °F /  11.1 °C 29.95 in /  1014.1 hPa Calm     56 % 0.00 in /  0 mm
17:32 68.0 °F /  20 °C 52.2 °F /  11.2 °C 29.95 in /  1014.1 hPa WNW 1.2 mph /  1.9 km/h 1.2 mph /  1.9 km/h 57 % 0.00 in /  0 mm
17:37 67.7 °F /  19.8 °C 51.4 °F /  10.8 °C 29.95 in /  1014.1 hPa NW 2.3 mph /  3.7 km/h 2.3 mph /  3.7 km/h 56 % 0.00 in /  0 mm
17:42 67.5 °F /  19.7 °C 51.7 °F /  10.9 °C 29.95 in /  1014.1 hPa WNW 2.0 mph /  3.2 km/h 2.0 mph /  3.2 km/h 57 % 0.00 in /  0 mm
17:47 67.4 °F /  19.7 °C 51.6 °F /  10.9 °C 29.95 in /  1014.1 hPa NW 1.2 mph /  1.9 km/h 1.2 mph /  1.9 km/h 57 % 0.00 in /  0 mm
17:52 67.2 °F /  19.6 °C 51.9 °F /  11.1 °C 29.95 in /  1014.1 hPa NW 2.3 mph /  3.7 km/h 2.3 mph /  3.7 km/h 58 % 0.00 in /  0 mm
17:57 66.8 °F /  19.3 °C 53.4 °F /  11.9 °C 29.96 in /  1014.4 hPa WNW 1.0 mph /  1.6 km/h 1.0 mph /  1.6 km/h 62 % 0.00 in /  0 mm
18:02 66.3 °F /  19.1 °C 53.8 °F /  12.1 °C 29.96 in /  1014.4 hPa Calm     64 % 0.00 in /  0 mm
18:07 65.6 °F /  18.7 °C 53.9 °F /  12.2 °C 29.96 in /  1014.4 hPa Calm     66 % 0.00 in /  0 mm
18:12 65.0 °F /  18.3 °C 54.6 °F /  12.6 °C 29.96 in /  1014.4 hPa WNW 1.2 mph /  1.9 km/h   69 % 0.00 in /  0 mm
18:17 64.6 °F /  18.1 °C 54.6 °F /  12.6 °C 29.96 in /  1014.4 hPa Calm     70 % 0.00 in /  0 mm
18:22 64.3 °F /  17.9 °C 54.3 °F /  12.4 °C 29.96 in /  1014.4 hPa Calm     70 % 0.00 in /  0 mm
18:27 64.3 °F /  17.9 °C 54.7 °F /  12.6 °C 29.95 in /  1014.1 hPa Calm     71 % 0.00 in /  0 mm
18:32 64.2 °F /  17.9 °C 54.6 °F /  12.6 °C 29.96 in /  1014.4 hPa Calm   0.1 mph /  0.2 km/h 71 % 0.00 in /  0 mm
18:37 64.2 °F /  17.9 °C 54.6 °F /  12.6 °C 29.96 in /  1014.4 hPa Calm     71 % 0.00 in /  0 mm
18:42 64.1 °F /  17.8 °C 54.5 °F /  12.5 °C 29.96 in /  1014.4 hPa Calm     71 % 0.00 in /  0 mm
18:47 64.0 °F /  17.8 °C 54.4 °F /  12.4 °C 29.96 in /  1014.4 hPa Calm     71 % 0.00 in /  0 mm
18:48 64.0 °F /  17.8 °C 54.4 °F /  12.4 °C 29.96 in /  1014.4 hPa Calm     71 % 0.00 in /  0 mm
18:53 64.1 °F /  17.8 °C 54.5 °F /  12.5 °C 29.96 in /  1014.4 hPa WNW 1.0 mph /  1.6 km/h   71 % 0.00 in /  0 mm
18:58 64.2 °F /  17.9 °C 53.8 °F /  12.1 °C 29.96 in /  1014.4 hPa NW 1.2 mph /  1.9 km/h 1.2 mph /  1.9 km/h 69 % 0.00 in /  0 mm
19:08 64.2 °F /  17.9 °C 53.8 °F /  12.1 °C 29.96 in /  1014.4 hPa NNW 1.2 mph /  1.9 km/h 1.2 mph /  1.9 km/h 69 % 0.00 in /  0 mm
19:13 64.0 °F /  17.8 °C 53.6 °F /  12 °C 29.96 in /  1014.4 hPa NNW 1.2 mph /  1.9 km/h 1.2 mph /  1.9 km/h 69 % 0.00 in /  0 mm
19:18 63.9 °F /  17.7 °C 53.5 °F /  11.9 °C 29.96 in /  1014.4 hPa Calm     69 % 0.00 in /  0 mm
19:23 63.7 °F /  17.6 °C 53.3 °F /  11.8 °C 29.96 in /  1014.4 hPa Calm     69 % 0.00 in /  0 mm
19:28 63.7 °F /  17.6 °C 53.7 °F /  12.1 °C 29.96 in /  1014.4 hPa Calm     70 % 0.00 in /  0 mm
19:33 63.5 °F /  17.5 °C 53.5 °F /  11.9 °C 29.97 in /  1014.8 hPa Calm     70 % 0.00 in /  0 mm
19:38 63.5 °F /  17.5 °C 53.5 °F /  11.9 °C 29.96 in /  1014.4 hPa Calm     70 % 0.00 in /  0 mm
19:43 63.4 °F /  17.4 °C 53.4 °F /  11.9 °C 29.96 in /  1014.4 hPa Calm     70 % 0.00 in /  0 mm
19:48 63.2 °F /  17.3 °C 53.6 °F /  12 °C 29.96 in /  1014.4 hPa Calm     71 % 0.00 in /  0 mm
19:53 63.0 °F /  17.2 °C 53.4 °F /  11.9 °C 29.96 in /  1014.4 hPa Calm     71 % 0.00 in /  0 mm
19:58 62.8 °F /  17.1 °C 53.6 °F /  12 °C 29.96 in /  1014.4 hPa Calm     72 % 0.00 in /  0 mm
20:03 62.6 °F /  17 °C 53.4 °F /  11.9 °C 29.96 in /  1014.4 hPa Calm     72 % 0.00 in /  0 mm
20:09 62.4 °F /  16.9 °C 53.6 °F /  12 °C 29.96 in /  1014.4 hPa Calm     73 % 0.00 in /  0 mm
20:14 62.2 °F /  16.8 °C 53.4 °F /  11.9 °C 29.96 in /  1014.4 hPa Calm     73 % 0.00 in /  0 mm
20:19 62.0 °F /  16.7 °C 53.2 °F /  11.8 °C 29.96 in /  1014.4 hPa Calm     73 % 0.00 in /  0 mm
20:21 62.0 °F /  16.7 °C 53.6 °F /  12 °C 29.96 in /  1014.4 hPa Calm     74 % 0.00 in /  0 mm
20:23 61.9 °F /  16.6 °C 53.1 °F /  11.7 °C 29.96 in /  1014.4 hPa Calm     73 % 0.00 in /  0 mm
20:26 61.9 °F /  16.6 °C 53.5 °F /  11.9 °C 29.96 in /  1014.4 hPa NW 1.2 mph /  1.9 km/h 1.2 mph /  1.9 km/h 74 % 0.00 in /  0 mm
20:29 61.8 °F /  16.6 °C 53.4 °F /  11.9 °C 29.96 in /  1014.4 hPa Calm     74 % 0.00 in /  0 mm
20:32 61.8 °F /  16.6 °C 53.4 °F /  11.9 °C 29.96 in /  1014.4 hPa NW 1.2 mph /  1.9 km/h   74 % 0.00 in /  0 mm
20:37 61.7 °F /  16.5 °C 53.0 °F /  11.7 °C 29.97 in /  1014.8 hPa Calm     73 % 0.00 in /  0 mm
20:42 61.7 °F /  16.5 °C 53.0 °F /  11.7 °C 29.97 in /  1014.8 hPa Calm     73 % 0.00 in /  0 mm
20:47 61.7 °F /  16.5 °C 53.0 °F /  11.7 °C 29.97 in /  1014.8 hPa Calm     73 % 0.00 in /  0 mm
20:52 61.6 °F /  16.4 °C 52.9 °F /  11.6 °C 29.97 in /  1014.8 hPa Calm     73 % 0.00 in /  0 mm
20:57 61.6 °F /  16.4 °C 53.2 °F /  11.8 °C 29.97 in /  1014.8 hPa Calm     74 % 0.00 in /  0 mm
21:02 61.6 °F /  16.4 °C 53.2 °F /  11.8 °C 29.97 in /  1014.8 hPa Calm     74 % 0.00 in /  0 mm
21:07 61.5 °F /  16.4 °C 52.8 °F /  11.6 °C 29.97 in /  1014.8 hPa Calm     73 % 0.00 in /  0 mm
21:12 61.4 °F /  16.3 °C 53.4 °F /  11.9 °C 29.97 in /  1014.8 hPa Calm     75 % 0.00 in /  0 mm
21:17 61.1 °F /  16.2 °C 53.5 °F /  11.9 °C 29.98 in /  1015.1 hPa Calm     76 % 0.00 in /  0 mm
21:22 60.7 °F /  15.9 °C 53.8 °F /  12.1 °C 29.98 in /  1015.1 hPa Calm     78 % 0.00 in /  0 mm
21:27 60.3 °F /  15.7 °C 53.8 °F /  12.1 °C 29.98 in /  1015.1 hPa Calm     79 % 0.00 in /  0 mm
21:32 60.1 °F /  15.6 °C 53.6 °F /  12 °C 29.98 in /  1015.1 hPa Calm     79 % 0.00 in /  0 mm
21:37 59.9 °F /  15.5 °C 53.7 °F /  12.1 °C 29.98 in /  1015.1 hPa Calm     80 % 0.00 in /  0 mm
21:42 60.0 °F /  15.6 °C 53.8 °F /  12.1 °C 29.98 in /  1015.1 hPa Calm     80 % 0.00 in /  0 mm
21:47 60.1 °F /  15.6 °C 54.2 °F /  12.3 °C 29.99 in /  1015.5 hPa Calm     81 % 0.00 in /  0 mm
21:52 59.9 °F /  15.5 °C 54.1 °F /  12.3 °C 29.99 in /  1015.5 hPa Calm     81 % 0.00 in /  0 mm
21:57 59.7 °F /  15.4 °C 54.2 °F /  12.3 °C 29.99 in /  1015.5 hPa Calm     82 % 0.00 in /  0 mm
22:02 59.5 °F /  15.3 °C 54.0 °F /  12.2 °C 29.99 in /  1015.5 hPa Calm     82 % 0.00 in /  0 mm
22:07 59.5 °F /  15.3 °C 53.7 °F /  12.1 °C 29.99 in /  1015.5 hPa Calm     81 % 0.00 in /  0 mm
22:12 59.5 °F /  15.3 °C 53.7 °F /  12.1 °C 30.00 in /  1015.8 hPa Calm     81 % 0.00 in /  0 mm
22:17 59.3 °F /  15.2 °C 53.8 °F /  12.1 °C 30.00 in /  1015.8 hPa Calm     82 % 0.00 in /  0 mm
22:22 59.2 °F /  15.1 °C 53.7 °F /  12.1 °C 29.99 in /  1015.5 hPa Calm     82 % 0.00 in /  0 mm
22:27 59.1 °F /  15.1 °C 53.9 °F /  12.2 °C 29.99 in /  1015.5 hPa Calm     83 % 0.00 in /  0 mm
22:32 59.0 °F /  15 °C 53.8 °F /  12.1 °C 29.99 in /  1015.5 hPa Calm     83 % 0.00 in /  0 mm
22:37 58.9 °F /  14.9 °C 53.7 °F /  12.1 °C 29.99 in /  1015.5 hPa Calm     83 % 0.00 in /  0 mm
22:42 58.9 °F /  14.9 °C 53.1 °F /  11.7 °C 29.99 in /  1015.5 hPa Calm     81 % 0.00 in /  0 mm
22:47 58.9 °F /  14.9 °C 53.4 °F /  11.9 °C 29.99 in /  1015.5 hPa Calm     82 % 0.00 in /  0 mm
22:57 58.4 °F /  14.7 °C 53.3 °F /  11.8 °C 29.99 in /  1015.5 hPa Calm     83 % 0.00 in /  0 mm
23:02 58.0 °F /  14.4 °C 52.9 °F /  11.6 °C 29.99 in /  1015.5 hPa Calm     83 % 0.00 in /  0 mm
23:07 57.8 °F /  14.3 °C 53.0 °F /  11.7 °C 29.99 in /  1015.5 hPa Calm     84 % 0.00 in /  0 mm
23:12 57.9 °F /  14.4 °C 52.8 °F /  11.6 °C 29.99 in /  1015.5 hPa Calm     83 % 0.00 in /  0 mm
23:17 58.0 °F /  14.4 °C 52.5 °F /  11.4 °C 29.99 in /  1015.5 hPa Calm     82 % 0.00 in /  0 mm
23:22 58.0 °F /  14.4 °C 52.5 °F /  11.4 °C 29.99 in /  1015.5 hPa Calm     82 % 0.00 in /  0 mm
23:27 58.1 °F /  14.5 °C 52.6 °F /  11.4 °C 29.99 in /  1015.5 hPa Calm     82 % 0.00 in /  0 mm
23:33 58.0 °F /  14.4 °C 52.5 °F /  11.4 °C 30.00 in /  1015.8 hPa Calm     82 % 0.00 in /  0 mm
23:38 57.9 °F /  14.4 °C 52.4 °F /  11.3 °C 30.00 in /  1015.8 hPa Calm     82 % 0.00 in /  0 mm
23:43 57.8 °F /  14.3 °C 52.3 °F /  11.3 °C 30.00 in /  1015.8 hPa Calm     82 % 0.00 in /  0 mm
23:48 57.6 °F /  14.2 °C 52.1 °F /  11.2 °C 30.00 in /  1015.8 hPa Calm     82 % 0.00 in /  0 mm
23:53 57.1 °F /  13.9 °C 52.0 °F /  11.1 °C 30.00 in /  1015.8 hPa Calm     83 % 0.00 in /  0 mm
23:58 56.8 °F /  13.8 °C 52.0 °F /  11.1 °C 30.00 in /  1015.8 hPa Calm     84 % 0.00 in /  0 mm
Park Place, Exeter, Tulare County, California, USA
Compliments of Weather Underground - 2.75 mb